Time;durP1;ratioP1;P1;durP2;ratioP2;P2;SDS_P1;SDS_P2;PMS_P1;PMS_P2;Temp;Humidity;BMP_temperature;BMP_pressure;BME280_temperature;BME280_humidity;BME280_pressure;Samples;Min_cycle;Max_cycle;Signal;HPM_P1;HPM_P2
2022/06/29 00:01:53;;;;;;;;;;;;;;;19.27;71.29;95281.97;5014740;28;19921;-78
2022/06/29 00:04:18;;;;;;;;;;;;;;;19.26;71.64;95285.69;5030015;28;19975;-78
2022/06/29 00:06:50;;;;;;;;;;;;;;;19.27;71.37;95278.56;5017982;28;19917;-78
2022/06/29 00:09:15;;;;;;;;;;;;;;;19.29;71.57;95295.66;5017546;28;19926;-78
2022/06/29 00:11:40;;;;;;;;;;;;;;;19.24;71.76;95290.44;5031217;23;19929;-78
2022/06/29 00:14:05;;;;;;;;;;;;;;;19.24;71.91;95293.06;4998036;28;20469;-78
2022/06/29 00:16:31;;;;;;;;;;;;;;;19.27;71.43;95292.53;5038264;23;20003;-79
2022/06/29 00:18:56;;;;;;;;;;;;;;;19.24;71.13;95287.00;5035078;28;19925;-79
2022/06/29 00:21:21;;;;;;;;;;;;;;;19.21;70.93;95287.56;5032853;28;20397;-78
2022/06/29 00:23:47;;;;;;;;;;;;;;;19.17;71.20;95290.72;5013665;28;19925;-78
2022/06/29 00:26:12;;;;;;;;;;;;;;;19.14;71.25;95291.28;5015233;28;19921;-79
2022/06/29 00:28:37;;;;;;;;;;;;;;;19.15;70.73;95298.13;5017011;28;19967;-78
2022/06/29 00:31:02;;;;;;;;;;;;;;;19.17;70.83;95296.00;5015433;28;19922;-79
2022/06/29 00:33:28;;;;;;;;;;;;;;;19.16;70.58;95289.16;5016011;28;19925;-78
2022/06/29 00:35:53;;;;;;;;;;;;;;;19.09;70.77;95286.03;5016745;28;19928;-79
2022/06/29 00:38:18;;;;;;;;;;;;;;;19.09;71.22;95286.03;5014452;28;20309;-78
2022/06/29 00:40:43;;;;;;;;;;;;;;;19.08;71.47;95279.19;5013813;28;19928;-78
2022/06/29 00:43:09;;;;;;;;;;;;;;;19.04;70.79;95272.13;5011078;28;19922;-78
2022/06/29 00:45:34;;;;;;;;;;;;;;;19.01;71.28;95276.06;5014481;28;19960;-78
2022/06/29 00:50:34;;;;;;;;;;;;;;;18.98;71.76;95281.88;5057845;23;20412;-79
2022/06/29 00:53:00;;;;;;;;;;;;;;;18.96;71.86;95276.09;5008618;28;19921;-79
2022/06/29 00:55:26;;;;;;;;;;;;;;;18.96;71.77;95272.69;5057932;23;19930;-78
2022/06/29 00:57:51;;;;;;;;;;;;;;;18.96;71.84;95275.31;5050506;23;20549;-78
2022/06/29 01:00:16;;;;;;;;;;;;;;;18.97;71.67;95269.00;5026766;28;19921;-78
2022/06/29 01:02:42;;;;;;;;;;;;;;;18.92;71.63;95274.28;5017933;28;20522;-78
2022/06/29 01:05:09;;;;;;;;;;;;;;;18.93;71.60;95271.38;5114711;23;20105;-78
2022/06/29 01:07:34;;;;;;;;;;;;;;;18.89;71.46;95265.09;5008013;28;20433;-78
2022/06/29 01:10:00;;;;;;;;;;;;;;;18.94;71.78;95267.69;5010613;28;19956;-77
2022/06/29 01:12:25;;;;;;;;;;;;;;;18.87;71.78;95268.00;5059696;23;20579;-78
2022/06/29 01:14:50;;;;;;;;;;;;;;;18.92;71.90;95279.56;4978466;28;20449;-77
2022/06/29 01:19:41;;;;;;;;;;;;;;;18.93;72.03;95257.41;4999293;23;20374;-78
2022/06/29 01:22:13;;;;;;;;;;;;;;;18.86;71.19;95255.84;4983092;28;19968;-78
2022/06/29 01:24:39;;;;;;;;;;;;;;;18.88;71.38;95255.63;4983990;28;19926;-79
2022/06/29 01:27:04;;;;;;;;;;;;;;;18.81;71.68;95257.75;4998214;28;20409;-77
2022/06/29 01:29:36;;;;;;;;;;;;;;;18.81;71.44;95252.47;4965493;28;19969;-77
2022/06/29 01:32:01;;;;;;;;;;;;;;;18.77;71.40;95252.25;4982082;28;19968;-77
2022/06/29 01:34:27;;;;;;;;;;;;;;;18.74;71.68;95255.41;4985131;28;20460;-77
2022/06/29 01:36:52;;;;;;;;;;;;;;;18.75;71.96;95254.34;4987723;28;20029;-79
2022/06/29 01:39:17;;;;;;;;;;;;;;;18.77;71.79;95262.78;4985777;28;19922;-78
2022/06/29 01:41:43;;;;;;;;;;;;;;;18.71;71.95;95255.97;4985473;28;20056;-78
2022/06/29 01:44:08;;;;;;;;;;;;;;;18.67;71.96;95272.56;4985292;28;19933;-78
2022/06/29 01:49:01;;;;;;;;;;;;;;;18.73;72.65;95267.03;5085437;23;19925;-78
2022/06/29 01:51:27;;;;;;;;;;;;;;;18.70;73.32;95256.22;5021462;28;19926;-78
2022/06/29 01:53:52;;;;;;;;;;;;;;;18.72;73.01;95256.75;5032729;23;20753;-78
2022/06/29 01:56:17;;;;;;;;;;;;;;;18.69;72.52;95254.66;5005003;28;19926;-78
2022/06/29 01:58:42;;;;;;;;;;;;;;;18.66;71.97;95250.72;5004698;28;19964;-78
2022/06/29 02:01:08;;;;;;;;;;;;;;;18.64;71.87;95242.28;5030921;23;19925;-78
2022/06/29 02:03:33;;;;;;;;;;;;;;;18.62;71.83;95247.03;4996192;28;20395;-78
2022/06/29 02:05:58;;;;;;;;;;;;;;;18.64;70.86;95247.56;4991095;28;19929;-78
2022/06/29 02:08:23;;;;;;;;;;;;;;;18.63;71.60;95242.53;4994068;28;19958;-78
2022/06/29 02:10:49;;;;;;;;;;;;;;;18.58;71.16;95241.50;4994244;28;19922;-78
2022/06/29 02:13:14;;;;;;;;;;;;;;;18.59;71.34;95231.75;4994789;28;19926;-77
2022/06/29 02:15:39;;;;;;;;;;;;;;;18.56;71.81;95230.47;5137422;23;19926;-77
2022/06/29 02:18:04;;;;;;;;;;;;;;;18.51;71.14;95241.00;4975546;28;20025;-77
2022/06/29 02:20:30;;;;;;;;;;;;;;;18.54;71.14;95237.81;4974626;28;19922;-78
2022/06/29 02:22:55;;;;;;;;;;;;;;;18.46;71.50;95241.03;4974446;28;20116;-77
2022/06/29 02:25:20;;;;;;;;;;;;;;;18.52;71.56;95236.53;4974756;28;20064;-78
2022/06/29 02:27:46;;;;;;;;;;;;;;;18.44;71.62;95227.34;4989370;28;20679;-78
2022/06/29 02:30:14;;;;;;;;;;;;;;;18.39;71.39;95234.50;4987065;28;19977;-77
2022/06/29 02:37:55;;;;;;;;;;;;;;;18.32;71.48;95232.13;4985995;23;19926;-77
2022/06/29 02:40:20;;;;;;;;;;;;;;;18.29;71.94;95225.56;4982947;28;19937;-78
2022/06/29 02:42:51;;;;;;;;;;;;;;;18.29;72.04;95230.06;4980105;28;19918;-77
2022/06/29 02:45:17;;;;;;;;;;;;;;;18.30;72.72;95221.09;4995462;28;19953;-78
2022/06/29 02:47:42;;;;;;;;;;;;;;;18.28;73.49;95228.47;4992961;23;19964;-77
2022/06/29 02:50:08;;;;;;;;;;;;;;;18.28;73.29;95220.56;4973842;28;19945;-78
2022/06/29 02:52:33;;;;;;;;;;;;;;;18.32;72.91;95218.97;4972771;28;19978;-78
2022/06/29 02:54:58;;;;;;;;;;;;;;;18.32;72.61;95226.88;4972268;28;19937;-77
2022/06/29 02:57:24;;;;;;;;;;;;;;;18.26;71.21;95220.06;4972583;28;20306;-79
2022/06/29 02:59:50;;;;;;;;;;;;;;;18.19;70.69;95219.56;5031742;23;19976;-79
2022/06/29 03:02:15;;;;;;;;;;;;;;;18.07;71.60;95216.47;4975099;28;19953;-79
2022/06/29 03:04:40;;;;;;;;;;;;;;;18.02;72.03;95221.72;4975749;28;19930;-79
2022/06/29 03:07:05;;;;;;;;;;;;;;;17.98;72.07;95214.38;4975473;28;20374;-79
2022/06/29 03:09:31;;;;;;;;;;;;;;;17.96;72.13;95221.75;4975719;28;19989;-79
2022/06/29 03:12:02;;;;;;;;;;;;;;;17.96;71.20;95220.94;4975509;28;19922;-81
2022/06/29 03:14:56;;;;;;;;;;;;;;;17.96;71.09;95220.94;4962822;28;20349;-77
2022/06/29 03:17:21;;;;;;;;;;;;;;;17.99;70.96;95215.94;4973986;28;19926;-77
2022/06/29 03:19:46;;;;;;;;;;;;;;;18.07;70.72;95219.09;4974282;28;19922;-78
2022/06/29 03:22:11;;;;;;;;;;;;;;;18.12;70.12;95225.13;4973726;28;20295;-78
2022/06/29 03:24:40;;;;;;;;;;;;;;;18.24;70.29;95222.19;4994974;23;20033;-77
2022/06/29 03:27:05;;;;;;;;;;;;;;;18.33;69.87;95222.41;4976076;28;19925;-77
2022/06/29 03:29:30;;;;;;;;;;;;;;;18.36;70.04;95224.47;4973495;28;19995;-78
2022/06/29 03:31:58;;;;;;;;;;;;;;;18.48;70.09;95228.38;4974199;28;20441;-79
2022/06/29 03:34:24;;;;;;;;;;;;;;;18.62;69.26;95217.25;4974296;28;19926;-78
2022/06/29 03:36:49;;;;;;;;;;;;;;;18.83;68.86;95221.38;5029213;23;19930;-78
2022/06/29 03:39:14;;;;;;;;;;;;;;;18.98;68.50;95220.50;4984687;28;19965;-78
2022/06/29 03:41:40;;;;;;;;;;;;;;;19.08;67.55;95215.94;4980039;28;19926;-78
2022/06/29 03:44:05;;;;;;;;;;;;;;;19.10;67.64;95228.84;4964333;28;19923;-79
2022/06/29 03:46:30;;;;;;;;;;;;;;;19.06;67.98;95228.59;4964954;28;19926;-79
2022/06/29 03:51:25;;;;;;;;;;;;;;;19.29;67.30;95216.56;5096059;23;19930;-79
2022/06/29 03:53:51;;;;;;;;;;;;;;;19.44;66.84;95213.78;5004655;28;19953;-79
2022/06/29 03:56:20;;;;;;;;;;;;;;;19.61;66.42;95207.34;5004632;28;20004;-79
2022/06/29 03:58:45;;;;;;;;;;;;;;;20.04;65.42;95208.22;5003999;28;19922;-79
2022/06/29 04:01:10;;;;;;;;;;;;;;;20.17;64.96;95210.16;5001579;28;20288;-79
2022/06/29 04:03:35;;;;;;;;;;;;;;;20.49;63.82;95208.75;5003041;28;19929;-78
2022/06/29 04:06:01;;;;;;;;;;;;;;;21.00;62.57;95194.84;5004763;28;19925;-79
2022/06/29 04:08:26;;;;;;;;;;;;;;;21.62;60.23;95193.56;5003623;28;20429;-78
2022/06/29 04:10:52;;;;;;;;;;;;;;;22.27;58.06;95195.31;5001705;28;19933;-76
2022/06/29 04:13:17;;;;;;;;;;;;;;;23.54;54.33;95195.13;5003096;28;19921;-79
2022/06/29 04:15:42;;;;;;;;;;;;;;;24.73;50.80;95187.09;4993428;28;19925;-78
2022/06/29 04:18:08;;;;;;;;;;;;;;;26.34;46.65;95185.53;5002448;28;19928;-78
2022/06/29 04:23:17;;;;;;;;;;;;;;;29.58;38.67;95177.38;5004307;28;19933;-78
2022/06/29 04:25:42;;;;;;;;;;;;;;;29.70;37.58;95181.91;5002836;28;19918;-78
2022/06/29 04:28:07;;;;;;;;;;;;;;;30.33;36.07;95179.25;5005433;28;19953;-77
2022/06/29 04:30:33;;;;;;;;;;;;;;;31.91;33.92;95182.09;4987480;28;20298;-79
2022/06/29 04:32:58;;;;;;;;;;;;;;;33.27;32.30;95186.72;5006137;28;19921;-79
2022/06/29 04:35:24;;;;;;;;;;;;;;;34.27;30.09;95186.56;4997424;28;20036;-78
2022/06/29 04:37:49;;;;;;;;;;;;;;;33.89;30.09;95181.63;5005864;28;19952;-79
2022/06/29 04:40:14;;;;;;;;;;;;;;;34.36;28.96;95169.31;4989047;28;19975;-78
2022/06/29 04:42:39;;;;;;;;;;;;;;;35.40;27.74;95174.09;4988608;28;19922;-79
2022/06/29 04:45:05;;;;;;;;;;;;;;;36.90;25.81;95169.47;4998975;28;20476;-79
2022/06/29 04:47:30;;;;;;;;;;;;;;;37.86;24.59;95169.03;5007344;28;19925;-79
2022/06/29 04:49:58;;;;;;;;;;;;;;;38.86;22.71;95168.19;5005634;28;20012;-80
2022/06/29 04:52:27;;;;;;;;;;;;;;;39.89;21.83;95178.53;4988482;28;19921;-80
2022/06/29 04:54:55;;;;;;;;;;;;;;;40.76;20.38;95179.44;5006342;28;19965;-80
2022/06/29 04:57:20;;;;;;;;;;;;;;;41.50;19.18;95187.38;5006027;28;20063;-79
2022/06/29 04:59:45;;;;;;;;;;;;;;;42.07;18.76;95186.09;5006602;28;19984;-79
2022/06/29 05:02:18;;;;;;;;;;;;;;;42.69;18.47;95191.63;5004643;28;19928;-79
2022/06/29 05:04:43;;;;;;;;;;;;;;;43.42;18.01;95192.78;5004393;28;19953;-79
2022/06/29 05:07:09;;;;;;;;;;;;;;;43.96;17.56;95191.94;4980168;28;20451;-79
2022/06/29 05:09:34;;;;;;;;;;;;;;;43.82;17.85;95189.66;4996399;28;19982;-79
2022/06/29 05:14:34;;;;;;;;;;;;;;;42.85;18.15;95184.16;5028732;23;19930;-80
2022/06/29 05:17:00;;;;;;;;;;;;;;;41.54;19.51;95179.09;4979370;28;19926;-79
2022/06/29 05:19:25;;;;;;;;;;;;;;;40.68;20.43;95194.41;4997043;28;19922;-78
2022/06/29 05:21:50;;;;;;;;;;;;;;;40.61;20.29;95199.22;4996343;28;19929;-79
2022/06/29 05:24:16;;;;;;;;;;;;;;;40.49;20.84;95190.44;4977194;28;19928;-79
2022/06/29 05:26:42;;;;;;;;;;;;;;;41.47;19.78;95182.75;4994532;28;19933;-79
2022/06/29 05:29:07;;;;;;;;;;;;;;;41.35;19.85;95181.44;4993519;28;19926;-79
2022/06/29 05:31:33;;;;;;;;;;;;;;;41.20;19.84;95193.06;4994992;28;20249;-80
2022/06/29 05:33:58;;;;;;;;;;;;;;;42.34;19.18;95187.81;4994642;28;19933;-79
2022/06/29 05:36:23;;;;;;;;;;;;;;;42.70;18.53;95187.69;4994398;28;20643;-79
2022/06/29 05:38:49;;;;;;;;;;;;;;;42.83;18.39;95183.81;4992257;28;20016;-78
2022/06/29 05:41:15;;;;;;;;;;;;;;;44.21;17.24;95188.44;4994206;28;19922;-79
2022/06/29 05:43:40;;;;;;;;;;;;;;;45.31;15.77;95179.16;4977244;28;19960;-79
2022/06/29 05:46:06;;;;;;;;;;;;;;;46.41;15.37;95187.13;4994640;28;19957;-79
2022/06/29 05:48:32;;;;;;;;;;;;;;;47.36;14.28;95184.97;4995433;28;19925;-79
2022/06/29 05:50:57;;;;;;;;;;;;;;;48.25;13.63;95194.59;4978485;28;20320;-80
2022/06/29 05:53:23;;;;;;;;;;;;;;;48.72;13.49;95197.81;4996102;28;19989;-85
2022/06/29 05:55:48;;;;;;;;;;;;;;;49.21;12.95;95202.78;4977813;28;20016;-82
2022/06/29 05:58:18;;;;;;;;;;;;;;;49.77;12.51;95207.25;4995862;28;19932;-80
2022/06/29 06:00:44;;;;;;;;;;;;;;;50.34;11.92;95206.88;4994356;28;20547;-80
2022/06/29 06:03:09;;;;;;;;;;;;;;;50.80;12.09;95191.59;4978897;28;19922;-81
2022/06/29 06:05:34;;;;;;;;;;;;;;;50.41;12.44;95203.69;4997835;28;19922;-80
2022/06/29 06:08:00;;;;;;;;;;;;;;;50.87;11.82;95200.22;4994950;28;19926;-80
2022/06/29 06:10:25;;;;;;;;;;;;;;;51.73;11.28;95200.56;4995837;28;20448;-79
2022/06/29 06:12:51;;;;;;;;;;;;;;;51.94;10.93;95199.22;4995719;28;19921;-78
2022/06/29 06:15:16;;;;;;;;;;;;;;;50.83;11.43;95188.63;4979959;28;19945;-85
2022/06/29 06:17:41;;;;;;;;;;;;;;;51.17;11.11;95183.44;4983216;28;20318;-85
2022/06/29 06:20:07;;;;;;;;;;;;;;;50.51;11.98;95189.72;4983021;28;19922;-85
2022/06/29 06:22:36;;;;;;;;;;;;;;;50.56;11.76;95191.78;5000010;28;20012;-84
2022/06/29 06:25:01;;;;;;;;;;;;;;;50.67;12.20;95191.94;4981908;28;19922;-83
2022/06/29 06:27:30;;;;;;;;;;;;;;;50.01;11.86;95178.75;4986841;28;19917;-84
2022/06/29 06:29:55;;;;;;;;;;;;;;;49.41;12.29;95180.78;4999898;28;19921;-80
2022/06/29 06:32:21;;;;;;;;;;;;;;;49.40;13.12;95178.50;4999058;28;19918;-83
2022/06/29 06:34:47;;;;;;;;;;;;;;;49.40;12.81;95173.75;5001038;28;19921;-80
2022/06/29 06:37:12;;;;;;;;;;;;;;;49.57;12.71;95171.25;5003812;28;19922;-83
2022/06/29 06:39:37;;;;;;;;;;;;;;;49.54;12.78;95174.97;5001614;28;19933;-84
2022/06/29 06:42:03;;;;;;;;;;;;;;;49.51;13.10;95167.66;5002341;28;19932;-82
2022/06/29 06:44:31;;;;;;;;;;;;;;;49.34;13.24;95166.63;4982707;28;19926;-83
2022/06/29 06:46:57;;;;;;;;;;;;;;;49.56;13.31;95158.66;5094613;23;19926;-83
2022/06/29 06:49:25;;;;;;;;;;;;;;;49.94;12.85;95166.03;5025336;28;19936;-87
2022/06/29 06:51:51;;;;;;;;;;;;;;;49.29;12.53;95171.56;5014005;28;19917;-83
2022/06/29 06:54:16;;;;;;;;;;;;;;;48.48;13.50;95162.69;5003789;28;19921;-81
2022/06/29 06:56:41;;;;;;;;;;;;;;;47.94;13.92;95155.53;5003583;28;19922;-82
2022/06/29 06:59:07;;;;;;;;;;;;;;;47.15;14.95;95152.88;5020212;28;19922;-81
2022/06/29 07:01:32;;;;;;;;;;;;;;;46.60;15.42;95150.13;5002880;28;20362;-82
2022/06/29 07:03:57;;;;;;;;;;;;;;;46.03;15.97;95142.25;4985797;28;19937;-81
2022/06/29 07:06:23;;;;;;;;;;;;;;;45.73;16.39;95152.09;5001858;28;19925;-81
2022/06/29 07:08:49;;;;;;;;;;;;;;;45.57;16.24;95154.28;5003120;28;19926;-82
2022/06/29 07:11:14;;;;;;;;;;;;;;;44.50;16.28;95147.91;5002144;28;19952;-82
2022/06/29 07:13:40;;;;;;;;;;;;;;;43.23;17.96;95147.94;5002765;28;19953;-82
2022/06/29 07:16:05;;;;;;;;;;;;;;;42.65;18.09;95147.22;5001205;28;19925;-81
2022/06/29 07:18:31;;;;;;;;;;;;;;;41.73;18.41;95147.50;5000866;28;20325;-81
2022/06/29 07:20:56;;;;;;;;;;;;;;;41.21;19.00;95137.28;5000759;28;19928;-81
2022/06/29 07:23:22;;;;;;;;;;;;;;;40.50;19.37;95139.41;5000199;28;20397;-81
2022/06/29 07:25:47;;;;;;;;;;;;;;;40.14;20.53;95137.28;5018412;28;19980;-82
2022/06/29 07:28:12;;;;;;;;;;;;;;;39.73;21.86;95136.78;5001407;28;20024;-80
2022/06/29 07:30:38;;;;;;;;;;;;;;;39.25;21.86;95140.53;5018244;28;19933;-81
2022/06/29 07:33:04;;;;;;;;;;;;;;;38.75;23.12;95148.50;5012285;28;19984;-79
2022/06/29 07:35:29;;;;;;;;;;;;;;;38.02;23.27;95134.00;5011668;28;19926;-85
2022/06/29 07:37:55;;;;;;;;;;;;;;;37.52;23.20;95139.00;4996598;28;19921;-79
2022/06/29 07:40:20;;;;;;;;;;;;;;;37.12;24.40;95135.72;4996420;28;20431;-81
2022/06/29 07:42:46;;;;;;;;;;;;;;;36.60;24.77;95124.63;4995906;28;19929;-83
2022/06/29 07:45:11;;;;;;;;;;;;;;;36.43;25.40;95132.81;4994780;28;19922;-83
2022/06/29 07:47:36;;;;;;;;;;;;;;;36.22;26.24;95126.25;4995477;28;19929;-82
2022/06/29 07:50:03;;;;;;;;;;;;;;;36.09;24.90;95130.50;4993729;28;19926;-85
2022/06/29 07:52:28;;;;;;;;;;;;;;;35.86;25.95;95136.31;4995544;28;19971;-83
2022/06/29 07:54:53;;;;;;;;;;;;;;;35.66;27.33;95135.91;5012014;28;19922;-81
2022/06/29 07:57:19;;;;;;;;;;;;;;;35.54;27.67;95130.06;4999830;28;19922;-81
2022/06/29 07:59:46;;;;;;;;;;;;;;;35.23;28.34;95129.59;4992049;28;19928;-85
2022/06/29 08:02:12;;;;;;;;;;;;;;;35.09;28.39;95124.91;4993673;28;20421;-86
2022/06/29 08:04:37;;;;;;;;;;;;;;;34.92;28.97;95127.56;4992795;28;19929;-85
2022/06/29 08:07:03;;;;;;;;;;;;;;;34.69;29.29;95125.13;5015240;28;20387;-83
2022/06/29 08:09:28;;;;;;;;;;;;;;;34.50;29.89;95126.97;5000595;28;19929;-82
2022/06/29 08:11:53;;;;;;;;;;;;;;;34.37;30.73;95124.97;5000044;28;19921;-82
2022/06/29 08:14:19;;;;;;;;;;;;;;;34.29;30.70;95129.50;5016323;28;20287;-82
2022/06/29 08:16:44;;;;;;;;;;;;;;;34.01;30.22;95128.16;5015257;28;19928;-83
2022/06/29 08:21:44;;;;;;;;;;;;;;;33.59;32.39;95117.75;5708584;23;19930;-83
2022/06/29 08:24:10;;;;;;;;;;;;;;;33.54;31.90;95130.81;4980926;28;20295;-80
2022/06/29 08:26:35;;;;;;;;;;;;;;;33.46;32.58;95129.94;4981115;28;19922;-83
2022/06/29 08:29:00;;;;;;;;;;;;;;;33.26;32.50;95132.03;5027708;23;19926;-83
2022/06/29 08:31:26;;;;;;;;;;;;;;;32.99;32.56;95136.72;5036650;28;19921;-80
2022/06/29 08:33:51;;;;;;;;;;;;;;;32.73;33.83;95121.41;5039744;28;19948;-79
2022/06/29 08:36:16;;;;;;;;;;;;;;;32.68;33.58;95124.38;5038718;28;20306;-81
2022/06/29 08:38:42;;;;;;;;;;;;;;;32.63;34.23;95124.72;5036625;28;19925;-82
2022/06/29 08:41:07;;;;;;;;;;;;;;;32.55;34.84;95123.09;5032879;28;19979;-82
2022/06/29 08:43:32;;;;;;;;;;;;;;;32.52;35.22;95124.56;5039537;28;19925;-82
2022/06/29 08:45:58;;;;;;;;;;;;;;;32.50;34.72;95128.78;5029996;28;19928;-82
2022/06/29 08:48:23;;;;;;;;;;;;;;;32.42;33.05;95125.22;5011983;28;20300;-82
2022/06/29 08:50:52;;;;;;;;;;;;;;;32.34;33.09;95123.56;5030816;28;19917;-80
2022/06/29 08:53:20;;;;;;;;;;;;;;;32.30;33.54;95127.34;5028029;28;19948;-80
2022/06/29 08:55:49;;;;;;;;;;;;;;;32.31;34.64;95123.50;5028694;28;20004;-81
2022/06/29 08:58:20;;;;;;;;;;;;;;;32.24;35.44;95122.25;5030600;28;19925;-81
2022/06/29 09:00:45;;;;;;;;;;;;;;;32.04;35.01;95120.00;5041437;28;20393;-84
2022/06/29 09:03:10;;;;;;;;;;;;;;;31.80;34.61;95113.09;5026512;28;19971;-82
2022/06/29 09:05:36;;;;;;;;;;;;;;;31.81;33.41;95117.34;5041223;28;20386;-82
2022/06/29 09:08:01;;;;;;;;;;;;;;;31.88;33.23;95117.44;5012601;28;19921;-81
2022/06/29 09:10:28;;;;;;;;;;;;;;;31.87;31.16;95116.69;5031985;28;19953;-82
2022/06/29 09:12:53;;;;;;;;;;;;;;;31.82;31.91;95113.53;5029247;28;19921;-81
2022/06/29 09:15:38;;;;;;;;;;;;;;;31.55;31.23;95116.13;5029299;28;20361;-81
2022/06/29 09:18:03;;;;;;;;;;;;;;;31.35;31.62;95109.25;5013120;28;20020;-81
2022/06/29 09:20:39;;;;;;;;;;;;;;;31.20;31.69;95118.19;5012719;28;19960;-81
2022/06/29 09:23:04;;;;;;;;;;;;;;;31.01;32.33;95114.34;5011395;28;20119;-82
2022/06/29 09:25:30;;;;;;;;;;;;;;;30.98;32.91;95120.44;5026111;28;20361;-80
2022/06/29 09:27:56;;;;;;;;;;;;;;;30.92;32.08;95116.50;5027711;28;20393;-81
2022/06/29 09:30:34;;;;;;;;;;;;;;;30.80;32.11;95113.94;5045186;28;19928;-81
2022/06/29 09:33:00;;;;;;;;;;;;;;;30.72;33.89;95115.69;5034752;28;19985;-81
2022/06/29 09:35:26;;;;;;;;;;;;;;;30.32;33.33;95115.97;5036740;28;19924;-81
2022/06/29 09:37:51;;;;;;;;;;;;;;;30.32;32.96;95109.84;5036531;28;19921;-82
2022/06/29 09:40:16;;;;;;;;;;;;;;;30.32;32.64;95105.25;5028473;28;19936;-80
2022/06/29 09:42:42;;;;;;;;;;;;;;;30.13;32.85;95105.22;5028218;28;20278;-81
2022/06/29 09:45:07;;;;;;;;;;;;;;;30.02;32.93;95101.47;5026556;28;19929;-81
2022/06/29 09:47:33;;;;;;;;;;;;;;;29.89;34.59;95098.88;5025309;28;20304;-81
2022/06/29 09:50:02;;;;;;;;;;;;;;;29.72;33.96;95091.19;5024703;28;20433;-80
2022/06/29 09:52:27;;;;;;;;;;;;;;;29.73;33.59;95100.81;5025563;28;20020;-81
2022/06/29 09:54:54;;;;;;;;;;;;;;;29.70;31.34;95098.03;5024664;28;20390;-77
2022/06/29 09:57:20;;;;;;;;;;;;;;;29.71;31.23;95096.91;5026180;28;19926;-79
2022/06/29 10:02:41;;;;;;;;;;;;;;;29.51;33.69;95088.78;5029006;28;19929;-83
2022/06/29 10:05:16;;;;;;;;;;;;;;;29.44;33.07;95087.78;5025975;28;19925;-84
2022/06/29 10:07:42;;;;;;;;;;;;;;;29.37;32.77;95098.34;5026450;28;19921;-81
2022/06/29 10:10:09;;;;;;;;;;;;;;;29.39;32.97;95088.84;5023568;28;19983;-80
2022/06/29 10:15:49;;;;;;;;;;;;;;;29.54;34.12;95077.38;5022674;28;19928;-78
2022/06/29 10:18:17;;;;;;;;;;;;;;;29.48;33.03;95078.00;5020711;28;19928;-82
2022/06/29 10:20:43;;;;;;;;;;;;;;;29.49;33.71;95076.88;5026531;28;19932;-82
2022/06/29 10:23:08;;;;;;;;;;;;;;;29.58;33.47;95080.91;5034522;28;19921;-78
2022/06/29 10:25:35;;;;;;;;;;;;;;;29.44;29.44;95077.06;5015576;28;20409;-80
2022/06/29 10:28:07;;;;;;;;;;;;;;;29.55;31.64;95072.78;5012610;28;19925;-79
2022/06/29 10:30:33;;;;;;;;;;;;;;;29.49;31.39;95076.88;5015455;28;20456;-79
2022/06/29 10:33:17;;;;;;;;;;;;;;;29.17;31.25;95084.84;5012960;28;19927;-80
2022/06/29 10:38:10;;;;;;;;;;;;;;;29.21;31.20;95066.19;4974927;28;19933;-78
2022/06/29 10:40:35;;;;;;;;;;;;;;;29.35;32.22;95073.81;4974923;28;19922;-78
2022/06/29 10:43:20;;;;;;;;;;;;;;;29.37;31.05;95060.84;4972710;28;19929;-79
2022/06/29 10:45:47;;;;;;;;;;;;;;;29.44;29.76;95066.34;4958295;29;19933;-80
2022/06/29 10:48:13;;;;;;;;;;;;;;;29.37;29.48;95060.84;4959692;28;19922;-81
2022/06/29 10:50:38;;;;;;;;;;;;;;;29.47;30.13;95061.13;4958967;29;19930;-82
2022/06/29 10:53:04;;;;;;;;;;;;;;;29.41;29.03;95064.38;4941335;29;19977;-77
2022/06/29 10:55:30;;;;;;;;;;;;;;;29.33;28.24;95059.97;4955954;29;19926;-79
2022/06/29 10:57:56;;;;;;;;;;;;;;;29.38;31.49;95054.34;4955143;28;20295;-77
2022/06/29 11:00:25;;;;;;;;;;;;;;;29.35;30.50;95063.09;4961402;28;19922;-78
2022/06/29 11:02:50;;;;;;;;;;;;;;;29.27;30.76;95065.56;4966855;28;19930;-78
2022/06/29 11:05:16;;;;;;;;;;;;;;;29.22;28.52;95060.47;4971416;28;20369;-77
2022/06/29 11:13:12;;;;;;;;;;;;;;;29.19;29.85;95044.31;4957257;28;20011;-81
2022/06/29 11:15:58;;;;;;;;;;;;;;;29.19;30.32;95044.31;4967368;28;19973;-83
2022/06/29 11:18:28;;;;;;;;;;;;;;;29.02;29.72;95050.78;4968176;28;19922;-81
2022/06/29 11:20:54;;;;;;;;;;;;;;;29.02;29.83;95055.34;4981096;28;20016;-82
2022/06/29 11:23:20;;;;;;;;;;;;;;;29.05;29.11;95041.28;4976131;28;19926;-81
2022/06/29 11:26:18;;;;;;;;;;;;;;;29.12;28.49;95028.84;4964047;28;19967;-80
2022/06/29 11:28:47;;;;;;;;;;;;;;;29.22;27.85;95033.69;4976349;28;19929;-79
2022/06/29 11:31:12;;;;;;;;;;;;;;;29.33;28.31;95027.84;4965631;28;19949;-81
2022/06/29 11:33:42;;;;;;;;;;;;;;;29.31;28.98;95022.06;4965965;28;20040;-81
2022/06/29 11:36:08;;;;;;;;;;;;;;;29.18;30.26;95027.47;4972324;28;19929;-81
2022/06/29 11:38:37;;;;;;;;;;;;;;;28.98;31.00;95017.78;4961240;29;19923;-81
2022/06/29 11:41:19;;;;;;;;;;;;;;;29.11;31.31;95016.56;4972966;28;19926;-81
2022/06/29 11:43:44;;;;;;;;;;;;;;;29.23;31.49;95013.81;4975734;28;19922;-79
2022/06/29 11:46:20;;;;;;;;;;;;;;;29.21;30.00;95018.75;4976216;28;19922;-78
2022/06/29 11:49:33;;;;;;;;;;;;;;;29.12;29.37;95007.41;4977452;28;19918;-79
2022/06/29 11:51:34;;;;;;;;;;;;;;;28.99;27.70;95014.00;4977083;28;20036;-77
2022/06/29 11:54:02;;;;;;;;;;;;;;;28.90;28.33;95008.00;4984328;28;19926;-78
2022/06/29 11:56:29;;;;;;;;;;;;;;;28.95;31.05;95007.75;4972951;28;19926;-80
2022/06/29 11:58:57;;;;;;;;;;;;;;;29.02;32.76;94999.13;4973043;28;19980;-79
2022/06/29 12:01:22;;;;;;;;;;;;;;;29.01;31.45;95000.25;4975381;28;19981;-78
2022/06/29 12:03:48;;;;;;;;;;;;;;;28.99;32.36;95003.28;4974290;28;20420;-79
2022/06/29 12:06:13;;;;;;;;;;;;;;;28.98;31.66;95004.41;4974903;28;20428;-79
2022/06/29 12:08:39;;;;;;;;;;;;;;;28.96;31.86;94999.41;4956733;28;19933;-79
2022/06/29 12:11:04;;;;;;;;;;;;;;;29.02;29.97;94999.13;4970391;28;19922;-76
2022/06/29 12:13:29;;;;;;;;;;;;;;;28.92;29.78;94995.84;4969765;28;19941;-77
2022/06/29 12:15:55;;;;;;;;;;;;;;;28.98;29.49;94996.38;4968438;28;20389;-76
2022/06/29 12:18:20;;;;;;;;;;;;;;;28.99;29.63;94993.34;4966901;28;19923;-78
2022/06/29 12:20:45;;;;;;;;;;;;;;;29.04;31.28;94994.97;4952092;28;20017;-78
2022/06/29 12:23:11;;;;;;;;;;;;;;;29.01;30.13;94993.00;4969683;28;19961;-77
2022/06/29 12:25:36;;;;;;;;;;;;;;;29.04;30.29;94994.97;4970069;28;19929;-77
2022/06/29 12:28:02;;;;;;;;;;;;;;;29.14;32.92;94994.47;4978863;28;19926;-76
2022/06/29 12:30:28;;;;;;;;;;;;;;;29.22;30.96;94982.03;4955194;28;19922;-79
2022/06/29 12:33:23;;;;;;;;;;;;;;;29.25;30.54;94986.69;4972310;28;19989;-82
2022/06/29 12:35:50;;;;;;;;;;;;;;;29.21;31.47;94993.88;4974310;28;19922;-78
2022/06/29 12:38:15;;;;;;;;;;;;;;;29.17;30.39;94987.66;4953174;28;19922;-78
2022/06/29 12:40:40;;;;;;;;;;;;;;;29.16;30.31;94981.53;4970212;28;19930;-78
2022/06/29 12:43:06;;;;;;;;;;;;;;;29.16;31.60;94983.44;4970422;28;19933;-78
2022/06/29 12:45:31;;;;;;;;;;;;;;;29.12;30.80;94980.63;4971668;28;19926;-78
2022/06/29 12:47:59;;;;;;;;;;;;;;;29.15;30.47;94981.88;4970788;28;19922;-80
2022/06/29 12:50:56;;;;;;;;;;;;;;;;;;;;;
2022/06/29 12:53:26;;;;;;;;;;;;;;;28.97;31.39;94984.13;5531172;23;19925;-78
2022/06/29 12:55:51;;;;;;;;;;;;;;;29.02;31.37;94978.50;4996111;28;20021;-76
2022/06/29 12:58:16;;;;;;;;;;;;;;;28.97;29.32;94973.41;4990258;28;19922;-77
2022/06/29 13:00:41;;;;;;;;;;;;;;;28.99;31.78;94976.50;4990767;28;19984;-79
2022/06/29 13:03:16;;;;;;;;;;;;;;;28.80;28.74;94973.66;4995120;28;19980;-78
2022/06/29 13:05:41;;;;;;;;;;;;;;;28.59;28.85;94972.00;4995159;28;19997;-78
2022/06/29 13:08:34;;;;;;;;;;;;;;;28.38;28.91;94971.44;4998432;28;19929;-84
2022/06/29 13:11:01;;;;;;;;;;;;;;;28.54;30.81;94977.63;4997878;28;19921;-77
2022/06/29 13:13:26;;;;;;;;;;;;;;;28.66;30.02;94969.53;4990287;28;19921;-78
2022/06/29 13:15:52;;;;;;;;;;;;;;;28.60;28.31;94967.44;4976647;28;19984;-78
2022/06/29 13:18:20;;;;;;;;;;;;;;;28.62;29.46;94965.97;4996109;28;19926;-79
2022/06/29 13:20:46;;;;;;;;;;;;;;;28.61;28.39;94971.66;4999545;28;19926;-82
2022/06/29 13:23:11;;;;;;;;;;;;;;;28.64;30.05;94953.03;4993921;28;19930;-77